sensor_id;sensor_type;location;lat;lon;timestamp;pressure;altitude;pressure_sealevel;temperature;humidity
16738;BME280;17906;47.684;10.806;2023-05-12T00:01:00;92910.78;;;4.19;100.00
16738;BME280;17906;47.684;10.806;2023-05-12T00:03:27;92918.22;;;4.17;100.00
16738;BME280;17906;47.684;10.806;2023-05-12T00:05:54;92909.13;;;4.18;100.00
16738;BME280;17906;47.684;10.806;2023-05-12T00:08:20;92914.00;;;4.27;100.00
16738;BME280;17906;47.684;10.806;2023-05-12T00:10:47;92915.03;;;4.33;100.00
16738;BME280;17906;47.684;10.806;2023-05-12T00:13:13;92908.44;;;4.29;100.00
16738;BME280;17906;47.684;10.806;2023-05-12T00:15:41;92907.38;;;4.30;100.00
16738;BME280;17906;47.684;10.806;2023-05-12T00:18:09;92903.06;;;4.29;100.00
16738;BME280;17906;47.684;10.806;2023-05-12T00:20:36;92908.53;;;4.16;100.00
16738;BME280;17906;47.684;10.806;2023-05-12T00:23:03;92903.63;;;4.13;100.00
16738;BME280;17906;47.684;10.806;2023-05-12T00:25:29;92910.97;;;4.24;100.00
16738;BME280;17906;47.684;10.806;2023-05-12T00:27:56;92904.59;;;4.18;100.00
16738;BME280;17906;47.684;10.806;2023-05-12T00:30:23;92903.16;;;4.16;100.00
16738;BME280;17906;47.684;10.806;2023-05-12T00:32:49;92903.66;;;4.31;100.00
16738;BME280;17906;47.684;10.806;2023-05-12T00:35:18;92894.16;;;4.35;100.00
16738;BME280;17906;47.684;10.806;2023-05-12T00:37:45;92894.25;;;4.22;100.00
16738;BME280;17906;47.684;10.806;2023-05-12T00:40:11;92901.50;;;4.21;100.00
16738;BME280;17906;47.684;10.806;2023-05-12T00:42:38;92883.25;;;4.30;100.00
16738;BME280;17906;47.684;10.806;2023-05-12T00:45:06;92885.50;;;4.33;100.00
16738;BME280;17906;47.684;10.806;2023-05-12T00:47:32;92891.03;;;4.38;100.00
16738;BME280;17906;47.684;10.806;2023-05-12T00:50:01;92878.59;;;4.44;100.00
16738;BME280;17906;47.684;10.806;2023-05-12T00:52:29;92877.34;;;4.46;100.00
16738;BME280;17906;47.684;10.806;2023-05-12T00:54:56;92876.41;;;4.34;100.00
16738;BME280;17906;47.684;10.806;2023-05-12T00:57:24;92880.72;;;4.35;100.00
16738;BME280;17906;47.684;10.806;2023-05-12T00:59:52;92874.53;;;4.34;100.00
16738;BME280;17906;47.684;10.806;2023-05-12T01:02:18;92866.28;;;4.36;100.00
16738;BME280;17906;47.684;10.806;2023-05-12T01:04:45;92870.94;;;4.22;100.00
16738;BME280;17906;47.684;10.806;2023-05-12T01:07:17;92875.63;;;4.27;100.00
16738;BME280;17906;47.684;10.806;2023-05-12T01:09:45;92884.34;;;4.22;100.00
16738;BME280;17906;47.684;10.806;2023-05-12T01:12:12;92882.50;;;4.23;100.00
16738;BME280;17906;47.684;10.806;2023-05-12T01:14:39;92879.50;;;4.31;100.00
16738;BME280;17906;47.684;10.806;2023-05-12T01:17:09;92870.22;;;4.33;100.00
16738;BME280;17906;47.684;10.806;2023-05-12T01:19:40;92878.88;;;4.35;100.00
16738;BME280;17906;47.684;10.806;2023-05-12T01:22:07;92884.00;;;4.37;100.00
16738;BME280;17906;47.684;10.806;2023-05-12T01:24:40;92879.47;;;4.37;100.00
16738;BME280;17906;47.684;10.806;2023-05-12T01:27:11;92884.47;;;4.34;100.00
16738;BME280;17906;47.684;10.806;2023-05-12T01:29:37;92879.09;;;4.34;100.00
16738;BME280;17906;47.684;10.806;2023-05-12T01:32:04;92874.59;;;4.28;100.00
16738;BME280;17906;47.684;10.806;2023-05-12T01:34:33;92870.50;;;4.25;100.00
16738;BME280;17906;47.684;10.806;2023-05-12T01:37:00;92869.81;;;4.30;100.00
16738;BME280;17906;47.684;10.806;2023-05-12T01:39:26;92871.91;;;4.28;100.00
16738;BME280;17906;47.684;10.806;2023-05-12T01:41:53;92874.81;;;4.26;100.00
16738;BME280;17906;47.684;10.806;2023-05-12T01:44:21;92887.41;;;4.26;100.00
16738;BME280;17906;47.684;10.806;2023-05-12T01:46:47;92872.50;;;4.30;100.00
16738;BME280;17906;47.684;10.806;2023-05-12T01:49:14;92879.31;;;4.32;100.00
16738;BME280;17906;47.684;10.806;2023-05-12T01:51:41;92878.97;;;4.47;100.00
16738;BME280;17906;47.684;10.806;2023-05-12T01:54:07;92875.78;;;4.32;100.00
16738;BME280;17906;47.684;10.806;2023-05-12T01:56:34;92883.69;;;4.27;100.00
16738;BME280;17906;47.684;10.806;2023-05-12T01:59:00;92881.69;;;4.41;100.00
16738;BME280;17906;47.684;10.806;2023-05-12T02:01:28;92881.69;;;4.41;100.00
16738;BME280;17906;47.684;10.806;2023-05-12T02:03:56;92883.00;;;4.31;100.00
16738;BME280;17906;47.684;10.806;2023-05-12T02:06:23;92876.69;;;4.26;100.00
16738;BME280;17906;47.684;10.806;2023-05-12T02:08:50;92887.44;;;4.19;100.00
16738;BME280;17906;47.684;10.806;2023-05-12T02:11:17;92882.53;;;4.16;100.00
16738;BME280;17906;47.684;10.806;2023-05-12T02:13:43;92875.97;;;4.12;100.00
16738;BME280;17906;47.684;10.806;2023-05-12T02:16:10;92889.31;;;4.19;100.00
16738;BME280;17906;47.684;10.806;2023-05-12T02:18:38;92894.69;;;4.19;100.00
16738;BME280;17906;47.684;10.806;2023-05-12T02:21:04;92877.75;;;4.18;100.00
16738;BME280;17906;47.684;10.806;2023-05-12T02:23:31;92874.69;;;4.15;100.00
16738;BME280;17906;47.684;10.806;2023-05-12T02:25:58;92883.78;;;4.14;100.00
16738;BME280;17906;47.684;10.806;2023-05-12T02:28:24;92879.41;;;4.19;100.00
16738;BME280;17906;47.684;10.806;2023-05-12T02:30:51;92881.16;;;4.32;100.00
16738;BME280;17906;47.684;10.806;2023-05-12T02:33:19;92878.41;;;4.38;100.00
16738;BME280;17906;47.684;10.806;2023-05-12T02:35:48;92881.47;;;4.42;100.00
16738;BME280;17906;47.684;10.806;2023-05-12T02:38:15;92875.50;;;4.40;100.00
16738;BME280;17906;47.684;10.806;2023-05-12T02:40:42;92876.56;;;4.39;100.00
16738;BME280;17906;47.684;10.806;2023-05-12T02:43:08;92872.59;;;4.42;100.00
16738;BME280;17906;47.684;10.806;2023-05-12T02:45:35;92871.38;;;4.44;100.00
16738;BME280;17906;47.684;10.806;2023-05-12T02:48:02;92869.94;;;4.42;100.00
16738;BME280;17906;47.684;10.806;2023-05-12T02:50:29;92872.19;;;4.45;100.00
16738;BME280;17906;47.684;10.806;2023-05-12T02:52:57;92867.63;;;4.45;100.00
16738;BME280;17906;47.684;10.806;2023-05-12T02:55:23;92876.13;;;4.42;100.00
16738;BME280;17906;47.684;10.806;2023-05-12T02:57:50;92882.25;;;4.49;100.00
16738;BME280;17906;47.684;10.806;2023-05-12T03:00:16;92881.66;;;4.47;100.00
16738;BME280;17906;47.684;10.806;2023-05-12T03:02:43;92873.38;;;4.49;100.00
16738;BME280;17906;47.684;10.806;2023-05-12T03:05:10;92878.47;;;4.57;100.00
16738;BME280;17906;47.684;10.806;2023-05-12T03:07:36;92875.19;;;4.55;100.00
16738;BME280;17906;47.684;10.806;2023-05-12T03:10:06;92866.91;;;4.56;100.00
16738;BME280;17906;47.684;10.806;2023-05-12T03:12:34;92868.38;;;4.52;100.00
16738;BME280;17906;47.684;10.806;2023-05-12T03:15:00;92887.63;;;4.49;100.00
16738;BME280;17906;47.684;10.806;2023-05-12T03:17:27;92885.97;;;4.48;100.00
16738;BME280;17906;47.684;10.806;2023-05-12T03:19:54;92878.16;;;4.47;100.00
16738;BME280;17906;47.684;10.806;2023-05-12T03:22:20;92876.06;;;4.49;100.00
16738;BME280;17906;47.684;10.806;2023-05-12T03:24:47;92884.94;;;4.49;100.00
16738;BME280;17906;47.684;10.806;2023-05-12T03:27:15;92883.28;;;4.48;100.00
16738;BME280;17906;47.684;10.806;2023-05-12T03:29:42;92889.81;;;4.34;100.00
16738;BME280;17906;47.684;10.806;2023-05-12T03:32:08;92885.31;;;4.28;100.00
16738;BME280;17906;47.684;10.806;2023-05-12T03:34:35;92891.84;;;4.38;100.00
16738;BME280;17906;47.684;10.806;2023-05-12T03:37:01;92889.59;;;4.35;100.00
16738;BME280;17906;47.684;10.806;2023-05-12T03:39:28;92889.28;;;4.25;100.00
16738;BME280;17906;47.684;10.806;2023-05-12T03:41:54;92889.06;;;4.27;100.00
16738;BME280;17906;47.684;10.806;2023-05-12T03:44:22;92889.19;;;4.32;100.00
16738;BME280;17906;47.684;10.806;2023-05-12T03:46:49;92877.28;;;4.28;100.00
16738;BME280;17906;47.684;10.806;2023-05-12T03:49:15;92880.41;;;4.25;100.00
16738;BME280;17906;47.684;10.806;2023-05-12T03:51:42;92878.09;;;4.28;100.00
16738;BME280;17906;47.684;10.806;2023-05-12T03:54:09;92876.91;;;4.24;100.00
16738;BME280;17906;47.684;10.806;2023-05-12T03:56:35;92883.53;;;4.22;100.00
16738;BME280;17906;47.684;10.806;2023-05-12T03:59:02;92871.75;;;4.23;100.00
16738;BME280;17906;47.684;10.806;2023-05-12T04:01:30;92879.72;;;4.29;100.00
16738;BME280;17906;47.684;10.806;2023-05-12T04:03:56;92881.09;;;4.38;100.00
16738;BME280;17906;47.684;10.806;2023-05-12T04:06:23;92882.59;;;4.34;100.00
16738;BME280;17906;47.684;10.806;2023-05-12T04:08:49;92887.28;;;4.39;100.00
16738;BME280;17906;47.684;10.806;2023-05-12T04:11:16;92887.78;;;4.29;100.00
16738;BME280;17906;47.684;10.806;2023-05-12T04:13:42;92879.91;;;4.34;100.00
16738;BME280;17906;47.684;10.806;2023-05-12T04:16:09;92889.19;;;4.32;100.00
16738;BME280;17906;47.684;10.806;2023-05-12T04:18:37;92892.31;;;4.29;100.00
16738;BME280;17906;47.684;10.806;2023-05-12T04:21:03;92884.28;;;4.29;100.00
16738;BME280;17906;47.684;10.806;2023-05-12T04:23:30;92876.69;;;4.26;100.00
16738;BME280;17906;47.684;10.806;2023-05-12T04:25:57;92876.63;;;4.32;100.00
16738;BME280;17906;47.684;10.806;2023-05-12T04:28:23;92878.66;;;4.37;100.00
16738;BME280;17906;47.684;10.806;2023-05-12T04:30:50;92873.59;;;4.47;100.00
16738;BME280;17906;47.684;10.806;2023-05-12T04:33:17;92880.84;;;4.47;100.00
16738;BME280;17906;47.684;10.806;2023-05-12T04:35:44;92885.53;;;4.51;100.00
16738;BME280;17906;47.684;10.806;2023-05-12T04:38:12;92880.94;;;4.58;100.00
16738;BME280;17906;47.684;10.806;2023-05-12T04:40:38;92888.63;;;4.55;100.00
16738;BME280;17906;47.684;10.806;2023-05-12T04:43:05;92881.31;;;4.62;100.00
16738;BME280;17906;47.684;10.806;2023-05-12T04:45:31;92883.16;;;4.61;100.00
16738;BME280;17906;47.684;10.806;2023-05-12T04:47:58;92886.31;;;4.58;100.00
16738;BME280;17906;47.684;10.806;2023-05-12T04:50:24;92888.16;;;4.58;100.00
16738;BME280;17906;47.684;10.806;2023-05-12T04:52:52;92887.50;;;4.62;100.00
16738;BME280;17906;47.684;10.806;2023-05-12T04:55:19;92893.41;;;4.71;100.00
16738;BME280;17906;47.684;10.806;2023-05-12T04:57:46;92890.44;;;4.79;100.00
16738;BME280;17906;47.684;10.806;2023-05-12T05:00:13;92903.91;;;4.73;100.00
16738;BME280;17906;47.684;10.806;2023-05-12T05:02:40;92912.38;;;4.76;100.00
16738;BME280;17906;47.684;10.806;2023-05-12T05:05:07;92912.88;;;4.85;100.00
16738;BME280;17906;47.684;10.806;2023-05-12T05:07:34;92902.69;;;4.93;100.00
16738;BME280;17906;47.684;10.806;2023-05-12T05:10:03;92903.19;;;4.84;100.00
16738;BME280;17906;47.684;10.806;2023-05-12T05:12:30;92910.50;;;4.95;100.00
16738;BME280;17906;47.684;10.806;2023-05-12T05:14:56;92910.16;;;4.91;100.00
16738;BME280;17906;47.684;10.806;2023-05-12T05:17:23;92907.00;;;4.94;100.00
16738;BME280;17906;47.684;10.806;2023-05-12T05:19:49;92907.22;;;4.93;100.00
16738;BME280;17906;47.684;10.806;2023-05-12T05:22:16;92906.09;;;4.82;100.00
16738;BME280;17906;47.684;10.806;2023-05-12T05:24:42;92906.91;;;4.83;100.00
16738;BME280;17906;47.684;10.806;2023-05-12T05:27:10;92910.59;;;4.88;100.00
16738;BME280;17906;47.684;10.806;2023-05-12T05:29:38;92911.41;;;4.89;100.00
16738;BME280;17906;47.684;10.806;2023-05-12T05:32:05;92903.00;;;5.04;100.00
16738;BME280;17906;47.684;10.806;2023-05-12T05:34:31;92907.09;;;5.06;100.00
16738;BME280;17906;47.684;10.806;2023-05-12T05:36:58;92905.16;;;5.13;100.00
16738;BME280;17906;47.684;10.806;2023-05-12T05:39:24;92903.81;;;5.04;100.00
16738;BME280;17906;47.684;10.806;2023-05-12T05:41:54;92906.81;;;5.14;100.00
16738;BME280;17906;47.684;10.806;2023-05-12T05:44:22;92902.91;;;5.29;100.00
16738;BME280;17906;47.684;10.806;2023-05-12T05:46:49;92915.53;;;5.28;100.00
16738;BME280;17906;47.684;10.806;2023-05-12T05:49:16;92908.16;;;5.23;100.00
16738;BME280;17906;47.684;10.806;2023-05-12T05:51:42;92908.69;;;5.32;100.00
16738;BME280;17906;47.684;10.806;2023-05-12T05:54:09;92917.34;;;5.52;100.00
16738;BME280;17906;47.684;10.806;2023-05-12T05:56:36;92909.44;;;5.69;100.00
16738;BME280;17906;47.684;10.806;2023-05-12T05:59:02;92909.06;;;5.84;100.00
16738;BME280;17906;47.684;10.806;2023-05-12T06:01:31;92905.22;;;6.10;100.00
16738;BME280;17906;47.684;10.806;2023-05-12T06:03:57;92901.16;;;6.31;100.00
16738;BME280;17906;47.684;10.806;2023-05-12T06:06:24;92899.81;;;6.52;100.00
16738;BME280;17906;47.684;10.806;2023-05-12T06:08:50;92900.41;;;6.77;100.00
16738;BME280;17906;47.684;10.806;2023-05-12T06:11:20;92906.16;;;7.16;100.00
16738;BME280;17906;47.684;10.806;2023-05-12T06:13:46;92904.47;;;7.50;100.00
16738;BME280;17906;47.684;10.806;2023-05-12T06:16:13;92903.75;;;7.54;100.00
16738;BME280;17906;47.684;10.806;2023-05-12T06:18:41;92899.97;;;7.55;100.00
16738;BME280;17906;47.684;10.806;2023-05-12T06:21:07;92903.53;;;7.44;100.00
16738;BME280;17906;47.684;10.806;2023-05-12T06:23:34;92899.41;;;7.53;100.00
16738;BME280;17906;47.684;10.806;2023-05-12T06:26:00;92900.38;;;7.47;100.00
16738;BME280;17906;47.684;10.806;2023-05-12T06:28:27;92901.22;;;7.36;100.00
16738;BME280;17906;47.684;10.806;2023-05-12T06:30:53;92900.28;;;7.31;100.00
16738;BME280;17906;47.684;10.806;2023-05-12T06:33:20;92898.72;;;7.35;100.00
16738;BME280;17906;47.684;10.806;2023-05-12T06:35:48;92894.66;;;7.20;100.00
16738;BME280;17906;47.684;10.806;2023-05-12T06:38:14;92900.75;;;7.27;100.00
16738;BME280;17906;47.684;10.806;2023-05-12T06:40:41;92906.91;;;7.51;98.63
16738;BME280;17906;47.684;10.806;2023-05-12T06:43:07;92895.56;;;7.78;96.63
16738;BME280;17906;47.684;10.806;2023-05-12T06:45:34;92897.09;;;7.85;93.14
16738;BME280;17906;47.684;10.806;2023-05-12T06:48:00;92892.25;;;7.99;93.96
16738;BME280;17906;47.684;10.806;2023-05-12T06:50:29;92892.97;;;8.23;95.23
16738;BME280;17906;47.684;10.806;2023-05-12T06:52:57;92888.59;;;8.67;91.66
16738;BME280;17906;47.684;10.806;2023-05-12T06:55:24;92879.66;;;9.00;86.31
16738;BME280;17906;47.684;10.806;2023-05-12T06:57:51;92881.50;;;9.34;84.80
16738;BME280;17906;47.684;10.806;2023-05-12T07:00:20;92885.75;;;9.68;86.72
16738;BME280;17906;47.684;10.806;2023-05-12T07:02:47;92885.75;;;9.68;86.72
16738;BME280;17906;47.684;10.806;2023-05-12T07:05:13;92897.53;;;10.01;82.55
16738;BME280;17906;47.684;10.806;2023-05-12T07:07:40;92886.41;;;10.24;79.16
16738;BME280;17906;47.684;10.806;2023-05-12T07:10:09;92887.22;;;10.25;77.49
16738;BME280;17906;47.684;10.806;2023-05-12T07:12:35;92885.50;;;10.40;70.96
16738;BME280;17906;47.684;10.806;2023-05-12T07:15:03;92880.56;;;10.64;75.56
16738;BME280;17906;47.684;10.806;2023-05-12T07:17:29;92887.28;;;10.57;79.71
16738;BME280;17906;47.684;10.806;2023-05-12T07:19:56;92895.19;;;10.36;80.11
16738;BME280;17906;47.684;10.806;2023-05-12T07:22:22;92898.22;;;10.40;82.45
16738;BME280;17906;47.684;10.806;2023-05-12T07:24:49;92890.03;;;10.35;81.09
16738;BME280;17906;47.684;10.806;2023-05-12T07:27:17;92896.69;;;10.49;84.91
16738;BME280;17906;47.684;10.806;2023-05-12T07:29:43;92887.56;;;10.60;79.78
16738;BME280;17906;47.684;10.806;2023-05-12T07:32:10;92883.63;;;10.73;78.05
16738;BME280;17906;47.684;10.806;2023-05-12T07:34:37;92880.09;;;10.72;76.73
16738;BME280;17906;47.684;10.806;2023-05-12T07:37:04;92890.53;;;11.18;74.86
16738;BME280;17906;47.684;10.806;2023-05-12T07:39:30;59087.34;;;-146.04;100.00
16738;BME280;17906;47.684;10.806;2023-05-12T07:41:57;92883.47;;;11.64;69.75
16738;BME280;17906;47.684;10.806;2023-05-12T07:44:25;92885.00;;;11.45;67.04
16738;BME280;17906;47.684;10.806;2023-05-12T07:46:52;92889.59;;;11.44;66.96
16738;BME280;17906;47.684;10.806;2023-05-12T07:49:19;92881.31;;;11.66;72.01
16738;BME280;17906;47.684;10.806;2023-05-12T07:51:47;92879.78;;;11.90;70.47
16738;BME280;17906;47.684;10.806;2023-05-12T07:54:14;92875.16;;;11.86;72.60
16738;BME280;17906;47.684;10.806;2023-05-12T07:56:40;92872.31;;;12.23;70.87
16738;BME280;17906;47.684;10.806;2023-05-12T07:59:07;92876.88;;;12.12;69.49
16738;BME280;17906;47.684;10.806;2023-05-12T08:01:36;92876.88;;;12.12;69.49
16738;BME280;17906;47.684;10.806;2023-05-12T08:04:03;92879.34;;;11.56;71.11
16738;BME280;17906;47.684;10.806;2023-05-12T08:06:30;92877.72;;;11.50;69.78
16738;BME280;17906;47.684;10.806;2023-05-12T08:08:57;92879.13;;;11.63;70.51
16738;BME280;17906;47.684;10.806;2023-05-12T08:11:24;92877.84;;;11.76;66.99
16738;BME280;17906;47.684;10.806;2023-05-12T08:13:51;92874.88;;;11.35;66.45
16738;BME280;17906;47.684;10.806;2023-05-12T08:16:17;59087.34;;;-146.04;100.00
16738;BME280;17906;47.684;10.806;2023-05-12T08:21:12;92867.94;;;10.80;74.15
16738;BME280;17906;47.684;10.806;2023-05-12T08:23:38;92876.22;;;10.63;73.71
16738;BME280;17906;47.684;10.806;2023-05-12T08:26:05;92876.41;;;10.52;71.77
16738;BME280;17906;47.684;10.806;2023-05-12T08:28:31;92874.69;;;10.45;74.13
16738;BME280;17906;47.684;10.806;2023-05-12T08:30:58;92872.59;;;10.26;75.53
16738;BME280;17906;47.684;10.806;2023-05-12T08:33:25;92875.41;;;10.36;76.89
16738;BME280;17906;47.684;10.806;2023-05-12T08:35:53;92874.91;;;10.39;79.51
16738;BME280;17906;47.684;10.806;2023-05-12T08:38:19;92876.47;;;10.30;80.99
16738;BME280;17906;47.684;10.806;2023-05-12T08:40:52;92874.38;;;10.15;79.72
16738;BME280;17906;47.684;10.806;2023-05-12T08:43:23;92879.91;;;9.98;81.08
16738;BME280;17906;47.684;10.806;2023-05-12T08:45:50;92881.69;;;10.14;80.70
16738;BME280;17906;47.684;10.806;2023-05-12T08:48:21;92879.81;;;9.93;76.94
16738;BME280;17906;47.684;10.806;2023-05-12T08:50:54;92888.16;;;9.65;79.12
16738;BME280;17906;47.684;10.806;2023-05-12T08:53:21;92891.81;;;9.75;79.03
16738;BME280;17906;47.684;10.806;2023-05-12T08:55:47;92879.97;;;9.81;78.17
16738;BME280;17906;47.684;10.806;2023-05-12T08:58:15;92885.69;;;9.63;81.77
16738;BME280;17906;47.684;10.806;2023-05-12T09:00:41;92891.03;;;9.58;80.90
16738;BME280;17906;47.684;10.806;2023-05-12T09:03:08;92897.09;;;9.48;79.26
16738;BME280;17906;47.684;10.806;2023-05-12T09:05:39;92896.28;;;9.48;80.22
16738;BME280;17906;47.684;10.806;2023-05-12T09:08:08;92896.72;;;9.40;78.03
16738;BME280;17906;47.684;10.806;2023-05-12T09:10:35;92900.56;;;9.44;78.35
16738;BME280;17906;47.684;10.806;2023-05-12T09:13:05;92895.63;;;9.41;77.88
16738;BME280;17906;47.684;10.806;2023-05-12T09:15:34;92900.97;;;9.52;80.08
16738;BME280;17906;47.684;10.806;2023-05-12T09:18:02;92899.03;;;9.70;78.57
16738;BME280;17906;47.684;10.806;2023-05-12T09:20:29;92899.13;;;9.75;79.01
16738;BME280;17906;47.684;10.806;2023-05-12T09:22:55;92895.56;;;9.52;78.94
16738;BME280;17906;47.684;10.806;2023-05-12T09:25:24;92896.28;;;9.48;77.26
16738;BME280;17906;47.684;10.806;2023-05-12T09:27:54;92896.19;;;9.59;78.80
16738;BME280;17906;47.684;10.806;2023-05-12T09:30:28;92901.63;;;9.43;78.04
16738;BME280;17906;47.684;10.806;2023-05-12T09:33:04;92897.47;;;9.35;78.56
16738;BME280;17906;47.684;10.806;2023-05-12T09:35:31;92895.16;;;9.44;78.02
16738;BME280;17906;47.684;10.806;2023-05-12T09:38:04;92906.53;;;9.46;79.26
16738;BME280;17906;47.684;10.806;2023-05-12T09:40:32;92899.72;;;9.60;78.62
16738;BME280;17906;47.684;10.806;2023-05-12T09:42:59;92903.25;;;9.82;80.41
16738;BME280;17906;47.684;10.806;2023-05-12T09:45:26;92901.94;;;9.85;75.86
16738;BME280;17906;47.684;10.806;2023-05-12T09:47:52;92902.75;;;9.85;78.87
16738;BME280;17906;47.684;10.806;2023-05-12T09:50:19;92899.34;;;9.73;74.73
16738;BME280;17906;47.684;10.806;2023-05-12T09:52:49;92898.22;;;9.69;77.79
16738;BME280;17906;47.684;10.806;2023-05-12T09:55:15;92884.69;;;9.69;77.87
16738;BME280;17906;47.684;10.806;2023-05-12T09:57:44;92899.00;;;9.65;77.93
16738;BME280;17906;47.684;10.806;2023-05-12T10:00:12;92901.56;;;9.54;78.22
16738;BME280;17906;47.684;10.806;2023-05-12T10:02:42;92894.88;;;9.62;79.07
16738;BME280;17906;47.684;10.806;2023-05-12T10:05:13;92897.22;;;9.75;80.23
16738;BME280;17906;47.684;10.806;2023-05-12T10:07:43;92884.88;;;9.84;77.71
16738;BME280;17906;47.684;10.806;2023-05-12T10:10:14;92892.13;;;9.79;74.86
16738;BME280;17906;47.684;10.806;2023-05-12T10:12:44;92900.28;;;9.62;76.12
16738;BME280;17906;47.684;10.806;2023-05-12T10:15:12;92894.41;;;9.65;76.82
16738;BME280;17906;47.684;10.806;2023-05-12T10:17:39;92893.44;;;9.54;75.94
16738;BME280;17906;47.684;10.806;2023-05-12T10:20:07;92897.84;;;9.60;77.63
16738;BME280;17906;47.684;10.806;2023-05-12T10:22:37;92908.41;;;9.62;78.99
16738;BME280;17906;47.684;10.806;2023-05-12T10:25:05;92905.00;;;9.72;78.54
16738;BME280;17906;47.684;10.806;2023-05-12T10:27:33;92902.13;;;9.78;79.47
16738;BME280;17906;47.684;10.806;2023-05-12T10:30:02;92897.91;;;9.87;77.69
16738;BME280;17906;47.684;10.806;2023-05-12T10:32:29;92896.59;;;9.90;78.23
16738;BME280;17906;47.684;10.806;2023-05-12T10:35:06;92888.72;;;9.88;79.91
16738;BME280;17906;47.684;10.806;2023-05-12T10:37:33;92895.53;;;9.69;78.57
16738;BME280;17906;47.684;10.806;2023-05-12T10:40:02;92894.00;;;9.40;79.56
16738;BME280;17906;47.684;10.806;2023-05-12T10:42:36;92903.44;;;9.37;80.10
16738;BME280;17906;47.684;10.806;2023-05-12T10:45:14;92903.13;;;9.34;81.02
16738;BME280;17906;47.684;10.806;2023-05-12T10:47:42;92907.22;;;9.36;80.02
16738;BME280;17906;47.684;10.806;2023-05-12T10:50:09;92906.81;;;9.27;81.28
16738;BME280;17906;47.684;10.806;2023-05-12T10:52:37;92906.00;;;9.27;84.02
16738;BME280;17906;47.684;10.806;2023-05-12T10:55:10;92900.84;;;9.09;82.69
16738;BME280;17906;47.684;10.806;2023-05-12T10:57:48;92912.69;;;9.02;83.56
16738;BME280;17906;47.684;10.806;2023-05-12T11:00:21;92905.53;;;9.13;83.37
16738;BME280;17906;47.684;10.806;2023-05-12T11:02:50;92901.59;;;9.21;82.69
16738;BME280;17906;47.684;10.806;2023-05-12T11:05:16;92904.13;;;9.27;84.55
16738;BME280;17906;47.684;10.806;2023-05-12T11:07:46;92902.31;;;9.33;83.70
16738;BME280;17906;47.684;10.806;2023-05-12T11:10:13;92900.69;;;9.32;83.41
16738;BME280;17906;47.684;10.806;2023-05-12T11:12:42;92915.91;;;9.38;84.21
16738;BME280;17906;47.684;10.806;2023-05-12T11:15:09;92916.91;;;9.32;82.78
16738;BME280;17906;47.684;10.806;2023-05-12T11:17:40;92909.25;;;9.46;83.20
16738;BME280;17906;47.684;10.806;2023-05-12T11:20:07;92910.53;;;9.60;84.04
16738;BME280;17906;47.684;10.806;2023-05-12T11:22:35;92907.72;;;9.72;81.86
16738;BME280;17906;47.684;10.806;2023-05-12T11:25:08;92905.44;;;9.64;82.64
16738;BME280;17906;47.684;10.806;2023-05-12T11:27:35;92906.09;;;9.71;80.48
16738;BME280;17906;47.684;10.806;2023-05-12T11:30:04;92900.50;;;9.99;81.92
16738;BME280;17906;47.684;10.806;2023-05-12T11:32:31;92899.94;;;10.24;80.72
16738;BME280;17906;47.684;10.806;2023-05-12T11:35:08;92898.19;;;10.62;77.34
16738;BME280;17906;47.684;10.806;2023-05-12T11:37:36;92894.44;;;10.95;75.24
16738;BME280;17906;47.684;10.806;2023-05-12T11:40:12;92894.00;;;11.50;73.39
16738;BME280;17906;47.684;10.806;2023-05-12T11:42:38;92890.75;;;11.53;71.13
16738;BME280;17906;47.684;10.806;2023-05-12T11:45:17;92899.84;;;11.79;74.77
16738;BME280;17906;47.684;10.806;2023-05-12T11:47:45;92896.16;;;12.06;71.07
16738;BME280;17906;47.684;10.806;2023-05-12T11:50:19;92896.88;;;11.86;70.74
16738;BME280;17906;47.684;10.806;2023-05-12T11:52:46;92896.53;;;12.30;71.28
16738;BME280;17906;47.684;10.806;2023-05-12T11:55:19;92890.16;;;11.99;68.30
16738;BME280;17906;47.684;10.806;2023-05-12T11:57:54;92892.50;;;11.80;69.32
16738;BME280;17906;47.684;10.806;2023-05-12T12:00:26;92891.72;;;11.37;71.98
16738;BME280;17906;47.684;10.806;2023-05-12T12:03:04;92894.25;;;11.49;73.86
16738;BME280;17906;47.684;10.806;2023-05-12T12:05:33;92911.88;;;11.46;72.54
16738;BME280;17906;47.684;10.806;2023-05-12T12:08:07;92900.94;;;11.36;75.24
16738;BME280;17906;47.684;10.806;2023-05-12T12:10:34;92901.53;;;11.43;73.40
16738;BME280;17906;47.684;10.806;2023-05-12T12:13:01;92900.31;;;11.24;75.50
16738;BME280;17906;47.684;10.806;2023-05-12T12:15:27;92903.66;;;10.99;76.91
16738;BME280;17906;47.684;10.806;2023-05-12T12:17:54;92902.31;;;10.96;75.76
16738;BME280;17906;47.684;10.806;2023-05-12T12:20:21;92902.56;;;11.32;76.86
16738;BME280;17906;47.684;10.806;2023-05-12T12:22:50;92904.97;;;11.71;76.13
16738;BME280;17906;47.684;10.806;2023-05-12T12:25:17;92896.84;;;11.81;72.82
16738;BME280;17906;47.684;10.806;2023-05-12T12:27:44;92898.50;;;11.82;72.63
16738;BME280;17906;47.684;10.806;2023-05-12T12:30:12;92890.66;;;11.85;71.44
16738;BME280;17906;47.684;10.806;2023-05-12T12:32:39;92902.22;;;11.66;68.66
16738;BME280;17906;47.684;10.806;2023-05-12T12:35:06;92894.06;;;11.66;68.74
16738;BME280;17906;47.684;10.806;2023-05-12T12:37:33;92908.25;;;11.30;73.17
16738;BME280;17906;47.684;10.806;2023-05-12T12:40:01;92901.53;;;11.38;73.46
16738;BME280;17906;47.684;10.806;2023-05-12T12:42:32;92907.91;;;11.22;72.70
16738;BME280;17906;47.684;10.806;2023-05-12T12:44:59;92895.63;;;11.14;70.61
16738;BME280;17906;47.684;10.806;2023-05-12T12:47:26;92912.72;;;11.15;71.76
16738;BME280;17906;47.684;10.806;2023-05-12T12:49:53;92900.44;;;11.39;71.26
16738;BME280;17906;47.684;10.806;2023-05-12T12:52:19;92900.47;;;11.44;72.12
16738;BME280;17906;47.684;10.806;2023-05-12T12:54:46;92903.47;;;11.48;71.03
16738;BME280;17906;47.684;10.806;2023-05-12T12:57:14;92904.78;;;11.40;70.88